Time;durP1;ratioP1;P1;durP2;ratioP2;P2;SDS_P1;SDS_P2;PMS_P1;PMS_P2;Temp;Humidity;BMP_temperature;BMP_pressure;BME280_temperature;BME280_humidity;BME280_pressure;Samples;Min_cycle;Max_cycle;Signal;HPM_P1;HPM_P2
2023/08/03 00:00:57;;;;;;;20.53;5.70;;;16.40;99.90;;;;;;5021172;28;20222;-61
2023/08/03 00:03:25;;;;;;;26.90;5.83;;;16.40;99.90;;;;;;5010933;28;20187;-61
2023/08/03 00:05:54;;;;;;;26.80;5.70;;;16.40;99.90;;;;;;5026464;28;20227;-61
2023/08/03 00:08:23;;;;;;;30.63;5.63;;;16.40;99.90;;;;;;5007368;28;20217;-61
2023/08/03 00:10:51;;;;;;;25.83;5.37;;;16.30;99.90;;;;;;5028561;28;20228;-61
2023/08/03 00:13:20;;;;;;;26.23;5.10;;;16.40;99.90;;;;;;5028027;28;20228;-60
2023/08/03 00:15:49;;;;;;;24.37;5.47;;;16.30;99.90;;;;;;5022994;28;20195;-61
2023/08/03 00:18:17;;;;;;;25.70;6.07;;;16.30;99.90;;;;;;5024961;28;20327;-60
2023/08/03 00:20:47;;;;;;;21.00;4.70;;;16.40;99.90;;;;;;5021387;28;20227;-60
2023/08/03 00:23:16;;;;;;;25.67;5.10;;;16.40;99.90;;;;;;5017919;28;20219;-60
2023/08/03 00:25:44;;;;;;;22.30;5.27;;;16.40;99.90;;;;;;5012252;28;20228;-62
2023/08/03 00:28:12;;;;;;;24.17;5.43;;;16.40;99.90;;;;;;5024114;28;20230;-60
2023/08/03 00:30:42;;;;;;;23.63;4.97;;;16.40;99.90;;;;;;5028121;28;20402;-60
2023/08/03 00:33:10;;;;;;;23.90;5.70;;;16.40;99.90;;;;;;5027022;28;20578;-60
2023/08/03 00:35:38;;;;;;;29.07;5.27;;;16.30;99.90;;;;;;5028609;28;20219;-60
2023/08/03 00:38:07;;;;;;;21.93;5.03;;;16.30;99.90;;;;;;5029789;28;20860;-61
2023/08/03 00:40:35;;;;;;;20.37;5.07;;;16.30;99.90;;;;;;5028688;28;20223;-61
2023/08/03 00:43:04;;;;;;;25.33;5.50;;;16.30;99.90;;;;;;5028538;28;20626;-60
2023/08/03 00:45:32;;;;;;;22.20;5.10;;;16.30;99.90;;;;;;5024051;28;20186;-61
2023/08/03 00:48:02;;;;;;;16.93;4.90;;;16.30;99.90;;;;;;5022249;28;20560;-60
2023/08/03 00:50:30;;;;;;;23.60;5.63;;;16.30;99.90;;;;;;5023997;28;20230;-60
2023/08/03 00:52:59;;;;;;;24.60;4.60;;;16.30;99.90;;;;;;5048822;28;20231;-61
2023/08/03 00:55:27;;;;;;;31.23;5.27;;;16.40;99.90;;;;;;5046296;28;20309;-61
2023/08/03 00:57:55;;;;;;;23.40;4.63;;;16.40;99.90;;;;;;5042722;28;20196;-60
2023/08/03 01:00:24;;;;;;;22.47;4.97;;;16.40;99.90;;;;;;5045834;28;20197;-60
2023/08/03 01:02:52;;;;;;;20.83;4.67;;;16.40;99.90;;;;;;5040804;28;20365;-60
2023/08/03 01:05:22;;;;;;;19.83;4.43;;;16.40;99.90;;;;;;5029260;28;20220;-60
2023/08/03 01:07:51;;;;;;;23.13;4.77;;;16.40;99.90;;;;;;5041465;28;20225;-61
2023/08/03 01:10:20;;;;;;;20.60;4.80;;;16.40;99.90;;;;;;5043709;28;20734;-61
2023/08/03 01:12:48;;;;;;;26.90;5.00;;;16.40;99.90;;;;;;5049112;28;20222;-60
2023/08/03 01:15:17;;;;;;;18.30;5.30;;;16.40;99.90;;;;;;5044011;28;20227;-61
2023/08/03 01:17:45;;;;;;;21.50;4.73;;;16.40;99.90;;;;;;5047141;28;20231;-60
2023/08/03 01:20:14;;;;;;;18.33;4.80;;;16.40;99.90;;;;;;5046993;28;20227;-61
2023/08/03 01:22:44;;;;;;;20.30;4.17;;;16.50;99.90;;;;;;5044300;28;20220;-60
2023/08/03 01:25:13;;;;;;;26.30;4.73;;;16.50;99.90;;;;;;5047164;28;20220;-60
2023/08/03 01:27:45;;;;;;;16.90;4.50;;;16.50;99.90;;;;;;5043034;28;20214;-60
2023/08/03 01:30:13;;;;;;;26.30;4.77;;;16.50;99.90;;;;;;5047585;28;20243;-61
2023/08/03 01:32:41;;;;;;;23.30;4.27;;;16.50;99.90;;;;;;5044553;28;20224;-60
2023/08/03 01:35:10;;;;;;;24.23;4.63;;;16.50;99.90;;;;;;5044745;28;20221;-61
2023/08/03 01:37:38;;;;;;;21.00;4.37;;;16.50;99.90;;;;;;5043424;28;20284;-60
2023/08/03 01:40:11;;;;;;;23.63;4.57;;;16.50;99.90;;;;;;5028310;28;20187;-61
2023/08/03 01:42:39;;;;;;;25.77;4.97;;;16.50;99.90;;;;;;5047621;28;20287;-60
2023/08/03 01:45:08;;;;;;;19.80;4.20;;;16.50;99.90;;;;;;5041788;28;20221;-60
2023/08/03 01:47:37;;;;;;;17.60;3.90;;;16.50;99.90;;;;;;5045876;28;20317;-61
2023/08/03 01:50:06;;;;;;;21.27;4.73;;;16.50;99.90;;;;;;5042567;28;20221;-61
2023/08/03 01:52:34;;;;;;;16.50;4.03;;;16.50;99.90;;;;;;5043142;28;20231;-61
2023/08/03 01:55:02;;;;;;;15.97;4.00;;;16.60;99.90;;;;;;5036252;28;21480;-61
2023/08/03 01:57:32;;;;;;;16.00;4.00;;;16.60;99.90;;;;;;5020643;28;20210;-61
2023/08/03 02:00:00;;;;;;;17.03;3.93;;;16.60;99.90;;;;;;5049697;28;20235;-61
2023/08/03 02:02:28;;;;;;;18.70;4.00;;;16.60;99.90;;;;;;5032168;28;20225;-62
2023/08/03 02:04:57;;;;;;;19.57;4.27;;;16.60;99.90;;;;;;5048020;28;20251;-61
2023/08/03 02:07:53;;;;;;;20.77;3.93;;;16.60;99.90;;;;;;5042458;28;20576;-61
2023/08/03 02:10:23;;;;;;;11.17;4.07;;;16.70;99.90;;;;;;5019247;28;20236;-61
2023/08/03 02:12:52;;;;;;;17.37;3.87;;;16.70;99.90;;;;;;5047993;28;20709;-60
2023/08/03 02:15:21;;;;;;;17.20;3.70;;;16.70;99.90;;;;;;5043046;28;20190;-61
2023/08/03 02:17:49;;;;;;;23.23;3.97;;;16.70;99.90;;;;;;5044441;28;20219;-61
2023/08/03 02:20:18;;;;;;;17.63;4.03;;;16.60;99.90;;;;;;5047626;28;20239;-61
2023/08/03 02:22:47;;;;;;;15.37;3.63;;;16.60;99.90;;;;;;5046290;28;20228;-61
2023/08/03 02:25:15;;;;;;;12.90;3.80;;;16.60;99.90;;;;;;5043942;28;20232;-60
2023/08/03 02:27:44;;;;;;;13.50;3.70;;;16.60;99.90;;;;;;5048926;28;20201;-61
2023/08/03 02:30:13;;;;;;;20.70;3.70;;;16.60;99.90;;;;;;5048233;28;20216;-61
2023/08/03 02:32:42;;;;;;;16.10;3.70;;;16.70;99.90;;;;;;5035869;28;20226;-60
2023/08/03 02:35:10;;;;;;;18.77;3.70;;;16.60;99.90;;;;;;5045846;28;20226;-60
2023/08/03 02:37:38;;;;;;;15.10;3.93;;;16.70;99.90;;;;;;5045771;28;20566;-60
2023/08/03 02:40:08;;;;;;;20.80;4.60;;;16.60;99.90;;;;;;5043279;28;20658;-60
2023/08/03 02:42:37;;;;;;;16.83;3.80;;;16.60;99.90;;;;;;5047217;28;20264;-60
2023/08/03 02:45:06;;;;;;;19.47;4.07;;;16.70;99.90;;;;;;5050977;28;20246;-60
2023/08/03 02:47:36;;;;;;;22.83;4.40;;;16.70;99.90;;;;;;5050610;28;20689;-61
2023/08/03 02:50:05;;;;;;;11.93;3.93;;;16.60;99.90;;;;;;5038881;28;20230;-60
2023/08/03 02:52:34;;;;;;;18.27;4.30;;;16.70;99.90;;;;;;5042296;28;20221;-60
2023/08/03 02:55:02;;;;;;;11.47;3.77;;;16.70;99.90;;;;;;5044496;28;20193;-60
2023/08/03 02:57:30;;;;;;;19.43;3.60;;;16.80;99.90;;;;;;5046193;28;20221;-61
2023/08/03 02:59:58;;;;;;;13.67;3.83;;;16.80;99.90;;;;;;5047848;28;20223;-60
2023/08/03 03:02:27;;;;;;;19.00;3.67;;;16.80;99.90;;;;;;5047368;28;20230;-60
2023/08/03 03:04:56;;;;;;;14.60;3.13;;;16.80;99.90;;;;;;5045852;28;20219;-60
2023/08/03 03:07:25;;;;;;;12.53;3.10;;;16.80;99.90;;;;;;5045167;28;20227;-60
2023/08/03 03:09:53;;;;;;;13.17;3.43;;;16.80;99.90;;;;;;5042982;28;20200;-60
2023/08/03 03:12:21;;;;;;;17.23;4.13;;;16.80;99.90;;;;;;5041248;28;20587;-61
2023/08/03 03:14:50;;;;;;;16.40;3.87;;;16.80;99.90;;;;;;5030631;28;20227;-60
2023/08/03 03:17:18;;;;;;;18.67;4.03;;;16.70;99.90;;;;;;5023794;28;20224;-60
2023/08/03 03:19:46;;;;;;;15.60;3.63;;;16.80;99.90;;;;;;5039887;28;20275;-60
2023/08/03 03:22:16;;;;;;;10.70;3.30;;;16.80;99.90;;;;;;5048871;28;20243;-60
2023/08/03 03:24:44;;;;;;;13.83;3.37;;;16.80;99.90;;;;;;5048336;28;20686;-60
2023/08/03 03:27:13;;;;;;;13.73;3.97;;;16.80;99.90;;;;;;5029304;28;20593;-60
2023/08/03 03:29:41;;;;;;;14.10;3.67;;;16.80;99.90;;;;;;5047400;28;20317;-60
2023/08/03 03:32:09;;;;;;;10.67;3.13;;;16.80;99.90;;;;;;5046707;28;20227;-60
2023/08/03 03:34:38;;;;;;;9.83;3.20;;;16.80;99.90;;;;;;5035215;28;20225;-60
2023/08/03 03:37:06;;;;;;;11.27;3.10;;;16.80;99.90;;;;;;5048655;28;20201;-60
2023/08/03 03:39:36;;;;;;;12.63;3.60;;;16.80;99.90;;;;;;5047762;28;20201;-61
2023/08/03 03:42:04;;;;;;;14.10;4.13;;;16.80;99.90;;;;;;5023060;28;20228;-61
2023/08/03 03:44:34;;;;;;;12.97;3.43;;;16.80;99.90;;;;;;5037814;28;20224;-60
2023/08/03 03:47:02;;;;;;;11.83;3.70;;;16.80;99.90;;;;;;5044897;28;20268;-61
2023/08/03 03:49:30;;;;;;;15.17;3.77;;;16.80;99.90;;;;;;5050522;28;20220;-60
2023/08/03 03:51:59;;;;;;;15.90;3.50;;;16.80;99.90;;;;;;5042535;28;20235;-60
2023/08/03 03:54:27;;;;;;;18.23;3.50;;;16.80;99.90;;;;;;5041256;28;20802;-60
2023/08/03 03:56:58;;;;;;;13.53;4.23;;;16.70;99.90;;;;;;5044520;28;20236;-60
2023/08/03 03:59:26;;;;;;;11.53;3.90;;;16.70;99.90;;;;;;5047047;28;20230;-60
2023/08/03 04:01:54;;;;;;;12.70;4.17;;;16.80;99.90;;;;;;5039113;28;20242;-61
2023/08/03 04:04:22;;;;;;;15.63;4.00;;;16.80;99.90;;;;;;5047313;28;20228;-60
2023/08/03 04:06:51;;;;;;;12.87;4.33;;;16.80;99.90;;;;;;5034602;28;20193;-60
2023/08/03 04:09:19;;;;;;;11.87;3.70;;;16.80;99.90;;;;;;5036339;28;20204;-60
2023/08/03 04:11:47;;;;;;;18.00;4.87;;;16.70;99.90;;;;;;5043093;28;20303;-60
2023/08/03 04:14:17;;;;;;;14.60;4.63;;;16.70;99.90;;;;;;5035616;28;20227;-61
2023/08/03 04:16:45;;;;;;;14.53;3.97;;;16.70;99.90;;;;;;5037145;28;20650;-61
2023/08/03 04:19:14;;;;;;;15.77;4.73;;;16.60;99.90;;;;;;5040010;28;20225;-61
2023/08/03 04:21:42;;;;;;;15.20;5.30;;;16.60;99.90;;;;;;5042744;28;20204;-61
2023/08/03 04:24:11;;;;;;;12.63;4.47;;;16.60;99.90;;;;;;5039838;28;20219;-60
2023/08/03 04:26:39;;;;;;;8.83;4.17;;;16.50;99.90;;;;;;5047468;28;20352;-60
2023/08/03 04:29:08;;;;;;;7.77;4.00;;;16.50;99.90;;;;;;5040420;28;20227;-60
2023/08/03 04:31:37;;;;;;;8.03;3.50;;;16.40;99.90;;;;;;5046586;28;20223;-61
2023/08/03 04:34:05;;;;;;;9.37;3.70;;;16.40;99.90;;;;;;5044191;28;20200;-60
2023/08/03 04:36:34;;;;;;;7.53;3.10;;;16.40;99.90;;;;;;5028335;28;20188;-60
2023/08/03 04:39:03;;;;;;;5.10;3.03;;;16.30;99.90;;;;;;5047291;28;20319;-60
2023/08/03 04:41:31;;;;;;;4.60;2.47;;;16.30;99.90;;;;;;5044534;28;20338;-61
2023/08/03 04:44:00;;;;;;;5.40;2.47;;;16.20;99.90;;;;;;5044686;28;20225;-60
2023/08/03 04:46:28;;;;;;;2.63;2.43;;;16.20;99.90;;;;;;5046155;28;20225;-61
2023/08/03 04:48:58;;;;;;;5.13;3.07;;;16.20;99.90;;;;;;5035839;28;20192;-60
2023/08/03 04:51:26;;;;;;;3.97;2.40;;;16.20;99.90;;;;;;5038499;28;20645;-61
2023/08/03 04:53:54;;;;;;;3.77;2.13;;;16.10;99.90;;;;;;5034711;28;20633;-61
2023/08/03 04:56:22;;;;;;;6.40;2.70;;;16.10;99.90;;;;;;5046307;28;20211;-61
2023/08/03 04:58:51;;;;;;;3.57;2.40;;;16.10;99.90;;;;;;5045891;28;20262;-61
2023/08/03 05:01:19;;;;;;;4.30;2.60;;;16.10;99.90;;;;;;5028210;28;20704;-61
2023/08/03 05:03:47;;;;;;;6.03;2.63;;;16.10;99.90;;;;;;5039648;28;20218;-61
2023/08/03 05:06:17;;;;;;;5.27;2.33;;;16.10;99.90;;;;;;5042637;28;20219;-61
2023/08/03 05:08:46;;;;;;;3.90;2.23;;;16.00;99.90;;;;;;5043772;28;20228;-61
2023/08/03 05:11:14;;;;;;;4.03;2.50;;;16.10;99.90;;;;;;5045387;28;20224;-61
2023/08/03 05:13:42;;;;;;;2.90;2.10;;;16.10;99.90;;;;;;5042183;28;20215;-61
2023/08/03 05:16:10;;;;;;;2.83;2.10;;;16.10;99.90;;;;;;5046380;28;20233;-61
2023/08/03 05:18:38;;;;;;;2.27;1.80;;;16.10;99.90;;;;;;5045768;28;20671;-61
2023/08/03 05:21:07;;;;;;;4.03;2.33;;;16.10;99.90;;;;;;5043021;28;20230;-61
2023/08/03 05:23:36;;;;;;;2.30;2.10;;;16.10;99.90;;;;;;5046120;28;20227;-61
2023/08/03 05:26:04;;;;;;;3.17;1.90;;;16.10;99.90;;;;;;5048219;28;20237;-61
2023/08/03 05:28:33;;;;;;;4.63;1.97;;;16.10;99.90;;;;;;5045909;28;20216;-61
2023/08/03 05:31:01;;;;;;;3.57;2.10;;;16.10;99.90;;;;;;5044084;28;20201;-60
2023/08/03 05:33:30;;;;;;;8.50;2.63;;;16.10;99.90;;;;;;5029668;28;20203;-61
2023/08/03 05:35:58;;;;;;;6.17;2.47;;;16.10;99.90;;;;;;5045980;28;20235;-61
2023/08/03 05:38:27;;;;;;;2.93;2.20;;;16.20;99.90;;;;;;5045960;28;20232;-61
2023/08/03 05:40:56;;;;;;;3.30;2.00;;;16.20;99.90;;;;;;5044821;28;20960;-61
2023/08/03 05:43:27;;;;;;;3.83;2.40;;;16.20;99.90;;;;;;5040893;28;20231;-61
2023/08/03 05:46:00;;;;;;;2.80;2.60;;;16.20;99.90;;;;;;5048206;28;20657;-60
2023/08/03 05:48:30;;;;;;;5.20;2.60;;;16.30;99.90;;;;;;5044890;28;20195;-61
2023/08/03 05:51:01;;;;;;;5.13;2.47;;;16.30;99.90;;;;;;5047626;28;20635;-61
2023/08/03 05:53:30;;;;;;;5.30;2.73;;;16.30;99.90;;;;;;5048351;28;20235;-61
2023/08/03 05:55:59;;;;;;;4.00;2.60;;;16.30;99.90;;;;;;5048762;28;20212;-60
2023/08/03 05:58:39;;;;;;;6.00;2.67;;;16.30;99.90;;;;;;5043970;28;20217;-61
2023/08/03 06:01:12;;;;;;;3.23;2.50;;;16.30;99.90;;;;;;5046837;28;20198;-61
2023/08/03 06:03:44;;;;;;;4.00;2.87;;;16.30;99.90;;;;;;5046794;28;20274;-60
2023/08/03 06:06:14;;;;;;;6.33;2.70;;;16.30;99.90;;;;;;5046777;28;20319;-60
2023/08/03 06:08:47;;;;;;;3.93;2.30;;;16.30;99.90;;;;;;5042372;28;20255;-60
2023/08/03 06:11:20;;;;;;;5.40;2.70;;;16.30;99.90;;;;;;5047869;28;20704;-60
2023/08/03 06:13:54;;;;;;;5.20;2.80;;;16.30;99.90;;;;;;5029251;28;20703;-60
2023/08/03 06:16:24;;;;;;;8.80;3.07;;;16.20;99.90;;;;;;5048012;28;20230;-60
2023/08/03 06:18:54;;;;;;;7.33;3.13;;;16.20;99.90;;;;;;5036400;28;20530;-60
2023/08/03 06:21:25;;;;;;;8.93;3.20;;;16.20;99.90;;;;;;5047963;28;20208;-60
2023/08/03 06:23:54;;;;;;;8.00;3.10;;;16.30;99.90;;;;;;5049243;28;20277;-60
2023/08/03 06:26:25;;;;;;;7.80;3.00;;;16.30;99.90;;;;;;5038363;28;20776;-60
2023/08/03 06:28:55;;;;;;;9.73;3.23;;;16.40;99.90;;;;;;5040247;28;20222;-60
2023/08/03 06:31:29;;;;;;;5.50;3.13;;;16.40;99.90;;;;;;5044638;28;20215;-60
2023/08/03 06:33:58;;;;;;;5.23;2.53;;;16.50;99.90;;;;;;5039639;28;20197;-60
2023/08/03 06:36:28;;;;;;;9.10;3.20;;;16.60;99.90;;;;;;5047145;28;20552;-60
2023/08/03 06:38:57;;;;;;;4.83;2.80;;;16.60;99.90;;;;;;5047996;28;20699;-60
2023/08/03 06:41:28;;;;;;;3.90;2.50;;;16.60;99.90;;;;;;5039143;28;20224;-60
2023/08/03 06:43:57;;;;;;;8.20;2.80;;;16.60;99.90;;;;;;5048135;28;20299;-59
2023/08/03 06:46:26;;;;;;;8.50;2.60;;;16.70;99.90;;;;;;5031880;28;20316;-59
2023/08/03 06:48:55;;;;;;;6.73;2.87;;;16.70;99.90;;;;;;5047756;28;20195;-59
2023/08/03 06:51:23;;;;;;;4.13;2.70;;;16.80;99.90;;;;;;5048814;28;20273;-60
2023/08/03 06:53:52;;;;;;;5.27;2.83;;;16.80;99.90;;;;;;5046355;28;20230;-59
2023/08/03 06:56:20;;;;;;;6.23;2.67;;;16.90;99.90;;;;;;5044784;28;20221;-59
2023/08/03 06:58:49;;;;;;;5.33;2.67;;;17.00;99.90;;;;;;5037843;28;20214;-59
2023/08/03 07:01:18;;;;;;;4.77;3.10;;;17.00;99.90;;;;;;5033356;28;20236;-60
2023/08/03 07:03:46;;;;;;;7.93;3.07;;;17.10;99.90;;;;;;5028920;28;20254;-60
2023/08/03 07:06:15;;;;;;;8.13;2.90;;;17.10;99.90;;;;;;5043398;28;20225;-60
2023/08/03 07:08:43;;;;;;;9.40;2.90;;;17.20;99.90;;;;;;5046184;28;20213;-60
2023/08/03 07:11:12;;;;;;;8.43;2.80;;;17.10;99.90;;;;;;5037703;28;20249;-60
2023/08/03 07:13:40;;;;;;;6.23;3.03;;;17.10;99.90;;;;;;5039711;28;20220;-60
2023/08/03 07:16:10;;;;;;;8.03;2.73;;;17.10;99.90;;;;;;5040747;28;20200;-60
2023/08/03 07:18:39;;;;;;;5.83;2.60;;;17.10;99.90;;;;;;5046758;28;20205;-60
2023/08/03 07:21:07;;;;;;;11.83;3.40;;;17.10;99.90;;;;;;5047071;28;20225;-60
2023/08/03 07:23:36;;;;;;;8.37;3.23;;;17.10;99.90;;;;;;5039775;28;20220;-60
2023/08/03 07:26:04;;;;;;;9.93;3.07;;;17.10;99.90;;;;;;5045397;28;20228;-60
2023/08/03 07:28:32;;;;;;;6.07;2.57;;;17.10;99.90;;;;;;5041347;28;20220;-60
2023/08/03 07:31:01;;;;;;;7.90;3.40;;;17.10;99.90;;;;;;5040440;28;20231;-60
2023/08/03 07:33:30;;;;;;;9.20;3.00;;;17.00;99.90;;;;;;5047928;28;20239;-60
2023/08/03 07:35:58;;;;;;;6.77;3.50;;;17.00;99.90;;;;;;5034217;28;20717;-60
2023/08/03 07:38:27;;;;;;;13.20;3.40;;;17.00;99.90;;;;;;5049046;28;20798;-60
2023/08/03 07:40:56;;;;;;;8.17;3.50;;;17.10;99.90;;;;;;5055591;28;20217;-60
2023/08/03 07:43:24;;;;;;;8.63;3.40;;;17.30;99.90;;;;;;5035381;28;20217;-60
2023/08/03 07:45:52;;;;;;;11.70;3.67;;;17.40;99.90;;;;;;5048382;28;20204;-60
2023/08/03 07:48:21;;;;;;;8.90;3.57;;;17.60;99.90;;;;;;5029102;28;20193;-60
2023/08/03 07:50:51;;;;;;;8.70;2.93;;;17.80;99.90;;;;;;5043678;28;20237;-60
2023/08/03 07:53:19;;;;;;;8.77;2.83;;;18.30;99.90;;;;;;5042554;28;20306;-61
2023/08/03 07:55:47;;;;;;;10.70;3.37;;;18.60;99.90;;;;;;5027882;28;20225;-60
2023/08/03 07:58:16;;;;;;;8.00;2.87;;;18.80;99.90;;;;;;5046846;28;20224;-61
2023/08/03 08:00:44;;;;;;;5.27;2.20;;;18.80;99.90;;;;;;5049734;28;20738;-60
2023/08/03 08:03:12;;;;;;;11.73;3.23;;;18.90;99.90;;;;;;5046275;28;20222;-60
2023/08/03 08:05:41;;;;;;;6.03;2.73;;;18.80;99.90;;;;;;5038711;28;20255;-60
2023/08/03 08:08:10;;;;;;;13.47;2.57;;;19.00;99.90;;;;;;5043299;28;20312;-60
2023/08/03 08:10:39;;;;;;;9.30;2.97;;;19.10;99.90;;;;;;5048482;28;20224;-60
2023/08/03 08:13:07;;;;;;;8.30;2.57;;;19.30;99.90;;;;;;5045579;28;20613;-60
2023/08/03 08:15:36;;;;;;;7.43;2.83;;;19.70;99.90;;;;;;5048007;28;20191;-60
2023/08/03 08:18:05;;;;;;;9.43;2.80;;;19.90;99.90;;;;;;5038096;28;20229;-60
2023/08/03 08:20:34;;;;;;;11.00;2.90;;;19.90;98.00;;;;;;5043568;28;20221;-60
2023/08/03 08:23:03;;;;;;;7.47;2.43;;;19.60;99.90;;;;;;5039506;28;20583;-60
2023/08/03 08:25:34;;;;;;;9.43;2.00;;;19.40;99.90;;;;;;5048352;28;20222;-60
2023/08/03 08:28:03;;;;;;;7.77;3.17;;;19.30;99.90;;;;;;5047265;28;20193;-60
2023/08/03 08:30:31;;;;;;;9.17;2.70;;;19.10;99.90;;;;;;5044163;28;20186;-60
2023/08/03 08:33:00;;;;;;;12.20;3.30;;;18.90;99.90;;;;;;5045184;28;20691;-60
2023/08/03 08:35:28;;;;;;;6.23;2.90;;;18.80;99.90;;;;;;5039185;28;20227;-60
2023/08/03 08:37:59;;;;;;;7.53;2.70;;;18.70;99.90;;;;;;5042828;28;20254;-60
2023/08/03 08:40:28;;;;;;;8.57;2.57;;;18.60;99.90;;;;;;5046754;28;20311;-60
2023/08/03 08:42:57;;;;;;;16.40;3.03;;;18.60;99.90;;;;;;5036694;28;20215;-59
2023/08/03 08:45:26;;;;;;;13.17;3.00;;;18.40;99.90;;;;;;5043528;28;20555;-60
2023/08/03 08:47:54;;;;;;;7.60;3.03;;;18.40;99.90;;;;;;5046566;28;20226;-60
2023/08/03 08:50:43;;;;;;;6.77;2.40;;;18.30;99.90;;;;;;5048154;28;20232;-60
2023/08/03 08:53:15;;;;;;;16.00;3.00;;;18.40;99.90;;;;;;5029318;28;20225;-60
2023/08/03 08:55:46;;;;;;;10.70;2.73;;;18.50;99.90;;;;;;5049445;28;20301;-60
2023/08/03 08:58:19;;;;;;;8.80;2.80;;;18.60;99.90;;;;;;5047750;28;20224;-60
2023/08/03 09:00:48;;;;;;;9.47;2.73;;;18.60;99.60;;;;;;5044480;28;20303;-60
2023/08/03 09:03:17;;;;;;;10.63;3.07;;;18.70;99.30;;;;;;5045299;28;20685;-60
2023/08/03 09:05:58;;;;;;;7.33;2.70;;;18.90;99.90;;;;;;5044266;28;20244;-60
2023/08/03 09:08:47;;;;;;;5.07;2.33;;;18.90;98.60;;;;;;5040523;28;20883;-60
2023/08/03 09:11:16;;;;;;;9.80;2.90;;;19.00;95.40;;;;;;5040574;28;20255;-60
2023/08/03 09:13:48;;;;;;;11.57;2.77;;;19.00;94.00;;;;;;5045830;28;20601;-60
2023/08/03 09:16:24;;;;;;;8.10;2.43;;;19.10;92.20;;;;;;5045585;28;20220;-60
2023/08/03 09:18:52;;;;;;;8.90;3.43;;;19.20;86.00;;;;;;5041228;28;20197;-59
2023/08/03 09:21:21;;;;;;;7.87;2.30;;;19.20;87.50;;;;;;5046404;28;20220;-59
2023/08/03 09:23:52;;;;;;;5.97;2.37;;;19.30;91.30;;;;;;5039881;28;20282;-59
2023/08/03 09:26:24;;;;;;;5.23;2.30;;;19.50;75.00;;;;;;5032336;28;20776;-60
2023/08/03 09:28:56;;;;;;;8.63;2.60;;;19.50;62.70;;;;;;5046267;28;20208;-60
2023/08/03 09:31:26;;;;;;;9.27;2.47;;;19.50;65.00;;;;;;5048746;28;20331;-60
2023/08/03 09:34:14;;;;;;;9.67;2.30;;;19.50;68.20;;;;;;5045136;28;20217;-60
2023/08/03 09:36:48;;;;;;;7.07;2.63;;;19.50;58.00;;;;;;5044317;28;20204;-60
2023/08/03 09:39:38;;;;;;;9.73;2.40;;;19.60;60.80;;;;;;5045864;28;20228;-60
2023/08/03 09:42:09;;;;;;;6.00;2.20;;;19.80;47.30;;;;;;5048562;28;20243;-60
2023/08/03 09:45:01;;;;;;;5.97;2.30;;;20.00;22.50;;;;;;5046344;28;20224;-60
2023/08/03 09:47:31;;;;;;;8.50;2.20;;;20.10;33.70;;;;;;5043605;28;20690;-60
2023/08/03 09:49:59;;;;;;;11.43;2.60;;;20.00;30.40;;;;;;5045422;28;20239;-60
2023/08/03 09:52:29;;;;;;;5.80;2.20;;;20.00;33.10;;;;;;5046101;28;20229;-60
2023/08/03 09:55:06;;;;;;;7.50;2.00;;;20.00;41.70;;;;;;5046876;28;20208;-59
2023/08/03 09:57:40;;;;;;;11.73;2.60;;;20.00;35.90;;;;;;5044206;28;20278;-59
2023/08/03 10:00:13;;;;;;;7.27;2.50;;;19.90;29.60;;;;;;5042993;28;20865;-60
2023/08/03 10:02:49;;;;;;;8.47;2.40;;;19.60;42.40;;;;;;5046601;28;20593;-60
2023/08/03 10:05:20;;;;;;;9.37;2.37;;;19.40;50.60;;;;;;5043966;28;20262;-60
2023/08/03 10:07:55;;;;;;;9.67;2.40;;;19.20;61.50;;;;;;5040770;28;20271;-60
2023/08/03 10:10:26;;;;;;;7.80;2.10;;;19.10;62.90;;;;;;5034808;28;20571;-59
2023/08/03 10:12:58;;;;;;;8.00;2.70;;;19.00;72.30;;;;;;5042987;28;20280;-57
2023/08/03 10:15:28;;;;;;;13.13;3.07;;;18.90;83.00;;;;;;5046548;28;20602;-60
2023/08/03 10:17:58;;;;;;;11.30;2.90;;;18.90;77.50;;;;;;5045673;28;20229;-60
2023/08/03 10:20:27;;;;;;;8.03;2.43;;;19.00;88.10;;;;;;5036523;28;20290;-59
2023/08/03 10:23:12;;;;;;;10.87;2.47;;;19.00;68.60;;;;;;5014210;28;20300;-60
2023/08/03 10:25:56;;;;;;;6.13;2.13;;;19.20;73.60;;;;;;5041841;28;20221;-60
2023/08/03 10:28:26;;;;;;;5.10;2.10;;;19.30;59.90;;;;;;5045093;28;20263;-60
2023/08/03 10:31:11;;;;;;;2.37;1.83;;;19.30;54.10;;;;;;5048141;28;20289;-59
2023/08/03 10:34:12;;;;;;;5.63;2.13;;;19.20;58.70;;;;;;5042209;28;20362;-59
2023/08/03 10:36:47;;;;;;;6.87;2.43;;;19.10;65.00;;;;;;4966028;28;20216;-58
2023/08/03 10:39:18;;;;;;;7.63;2.40;;;19.00;69.20;;;;;;5037218;28;20719;-58
2023/08/03 10:41:49;;;;;;;7.80;2.23;;;18.90;82.00;;;;;;5032764;28;20227;-59
2023/08/03 10:44:28;;;;;;;12.00;2.77;;;18.80;89.50;;;;;;5041597;28;20299;-61
2023/08/03 10:46:58;;;;;;;6.50;2.13;;;18.70;90.60;;;;;;5040498;28;20225;-58
2023/08/03 10:49:52;;;;;;;6.07;2.30;;;18.60;95.50;;;;;;5039335;28;20231;-60
2023/08/03 10:52:31;;;;;;;7.03;2.30;;;18.60;99.90;;;;;;5044660;28;20221;-59
2023/08/03 10:55:19;;;;;;;5.47;2.20;;;18.60;99.90;;;;;;5048861;28;20193;-59
2023/08/03 10:57:47;;;;;;;4.10;1.87;;;18.70;99.90;;;;;;5049203;28;20191;-59
2023/08/03 11:00:17;;;;;;;3.53;1.57;;;19.00;96.70;;;;;;5045874;28;20255;-60
2023/08/03 11:02:46;;;;;;;5.47;1.70;;;19.10;85.00;;;;;;5038652;28;20308;-60
2023/08/03 11:05:15;;;;;;;3.53;1.83;;;19.30;90.20;;;;;;5048131;28;20217;-60
2023/08/03 11:07:44;;;;;;;4.53;2.10;;;19.60;90.90;;;;;;5044889;28;20225;-60
2023/08/03 11:10:15;;;;;;;4.73;1.47;;;19.70;87.00;;;;;;5044339;28;20233;-60
2023/08/03 11:12:46;;;;;;;5.07;1.67;;;19.70;56.00;;;;;;5034684;28;20227;-60
2023/08/03 11:15:17;;;;;;;2.43;1.40;;;19.70;71.10;;;;;;5046876;28;20308;-59
2023/08/03 11:17:50;;;;;;;4.97;1.47;;;19.70;71.20;;;;;;5045994;28;20223;-60
2023/08/03 11:20:20;;;;;;;5.17;1.70;;;19.80;75.50;;;;;;5042342;28;20236;-60
2023/08/03 11:22:48;;;;;;;6.93;1.80;;;20.00;68.60;;;;;;5047119;28;20225;-59
2023/08/03 11:25:19;;;;;;;3.97;1.80;;;19.90;67.40;;;;;;5042789;28;20226;-59
2023/08/03 11:27:48;;;;;;;4.13;1.90;;;19.70;78.00;;;;;;5045198;28;20216;-59
2023/08/03 11:30:20;;;;;;;4.03;2.00;;;19.70;80.90;;;;;;5041689;28;20223;-59
2023/08/03 11:32:57;;;;;;;2.90;1.70;;;19.60;97.90;;;;;;5034762;28;22047;-60
2023/08/03 11:35:26;;;;;;;4.57;2.10;;;19.50;99.90;;;;;;5043304;28;20224;-60
2023/08/03 11:37:54;;;;;;;4.00;2.07;;;19.30;99.90;;;;;;5035921;28;20332;-60
2023/08/03 11:40:22;;;;;;;8.70;2.37;;;19.30;99.90;;;;;;5043920;28;20216;-59
2023/08/03 11:42:51;;;;;;;6.27;2.20;;;19.40;99.90;;;;;;5040397;28;20655;-58
2023/08/03 11:45:19;;;;;;;7.47;2.40;;;19.40;99.90;;;;;;5050548;28;20244;-59
2023/08/03 11:47:49;;;;;;;8.13;2.50;;;19.40;99.90;;;;;;5044899;28;20229;-60
2023/08/03 11:50:19;;;;;;;7.00;2.37;;;19.60;99.90;;;;;;5024135;28;20231;-59
2023/08/03 11:52:48;;;;;;;4.33;2.00;;;19.70;99.90;;;;;;5026556;28;20228;-59
2023/08/03 11:55:27;;;;;;;12.13;2.50;;;19.80;96.60;;;;;;5025274;28;20566;-60
2023/08/03 11:58:10;;;;;;;7.73;2.30;;;19.90;97.30;;;;;;5021100;28;20189;-59
2023/08/03 12:00:41;;;;;;;9.57;2.47;;;20.00;95.80;;;;;;5024603;28;20216;-59
2023/08/03 12:03:10;;;;;;;10.27;2.43;;;20.20;90.80;;;;;;5022649;28;20233;-59
2023/08/03 12:05:50;;;;;;;8.50;2.33;;;20.60;81.90;;;;;;5021948;28;20247;-60
2023/08/03 12:08:41;;;;;;;6.63;2.50;;;20.60;51.50;;;;;;5021588;28;20223;-60
2023/08/03 12:11:10;;;;;;;7.67;2.53;;;20.30;56.70;;;;;;5018757;28;20728;-60
2023/08/03 12:13:43;;;;;;;8.27;2.70;;;20.00;74.10;;;;;;5024020;28;20389;-60
2023/08/03 12:16:16;;;;;;;10.27;2.80;;;19.60;91.70;;;;;;5026617;28;20246;-59
2023/08/03 12:18:46;;;;;;;4.67;1.83;;;19.30;99.90;;;;;;5028342;28;20811;-59
2023/08/03 12:21:18;;;;;;;6.43;2.37;;;19.20;99.90;;;;;;5022915;28;20688;-59
2023/08/03 12:23:46;;;;;;;8.47;2.13;;;19.10;99.90;;;;;;5008552;28;20280;-59
2023/08/03 12:26:14;;;;;;;8.33;2.17;;;19.00;97.00;;;;;;5023432;28;20214;-59
2023/08/03 12:28:43;;;;;;;6.00;2.43;;;19.00;95.90;;;;;;5020092;28;20230;-59
2023/08/03 12:31:11;;;;;;;6.40;2.20;;;19.10;99.10;;;;;;5023811;28;20280;-59
2023/08/03 12:33:39;;;;;;;6.37;1.97;;;19.40;93.90;;;;;;5021913;28;20252;-60
2023/08/03 12:36:09;;;;;;;5.30;2.27;;;19.70;78.60;;;;;;5026640;28;21005;-59
2023/08/03 12:38:37;;;;;;;6.40;1.77;;;19.90;59.10;;;;;;5011210;28;20221;-59
2023/08/03 12:41:06;;;;;;;4.20;1.93;;;20.00;59.80;;;;;;5027016;28;20225;-59
2023/08/03 12:43:34;;;;;;;6.07;2.23;;;19.90;62.50;;;;;;5029206;28;20236;-59
2023/08/03 12:46:03;;;;;;;3.87;1.93;;;19.70;81.70;;;;;;5009095;28;20560;-59
2023/08/03 12:48:31;;;;;;;4.53;2.20;;;19.40;95.20;;;;;;5029101;28;20209;-59
2023/08/03 12:51:00;;;;;;;3.70;2.30;;;19.30;97.30;;;;;;5029827;28;20229;-59
2023/08/03 12:53:30;;;;;;;6.83;2.30;;;19.10;99.90;;;;;;5049522;28;20224;-59
2023/08/03 12:55:59;;;;;;;3.97;1.60;;;19.10;99.90;;;;;;5030625;28;20216;-59
2023/08/03 12:58:27;;;;;;;5.93;2.87;;;19.10;99.90;;;;;;5047343;28;20233;-60